createdAt,value
2022-08-03T00:02:57.169Z,21.30
2022-08-03T00:09:57.392Z,21.30
2022-08-03T00:16:58.152Z,21.20
2022-08-03T00:23:58.372Z,21.20
2022-08-03T00:30:58.829Z,21.10
2022-08-03T00:37:59.783Z,21.10
2022-08-03T00:45:00.354Z,21.00
2022-08-03T00:52:01.708Z,21.00
2022-08-03T00:59:14.268Z,20.90
2022-08-03T01:06:19.546Z,20.90
2022-08-03T01:14:03.920Z,20.80
2022-08-03T01:21:23.732Z,20.70
2022-08-03T01:28:44.230Z,20.70
2022-08-03T01:36:02.010Z,20.60
2022-08-03T01:43:03.468Z,20.50
2022-08-03T01:50:05.359Z,20.40
2022-08-03T01:57:06.923Z,20.30
2022-08-03T02:04:08.843Z,20.20
2022-08-03T02:11:09.010Z,20.20
2022-08-03T02:18:11.124Z,20.10
2022-08-03T02:25:14.009Z,20.00
2022-08-03T02:32:20.180Z,19.90
2022-08-03T02:39:24.339Z,19.80
2022-08-03T02:46:29.314Z,19.70
2022-08-03T02:53:31.697Z,19.70
2022-08-03T03:00:33.180Z,19.50
2022-08-03T03:07:51.823Z,19.50
2022-08-03T03:14:52.870Z,19.40
2022-08-03T03:21:54.089Z,19.30
2022-08-03T03:28:54.468Z,19.20
2022-08-03T03:35:55.455Z,19.10
2022-08-03T03:42:55.896Z,19.00
2022-08-03T03:49:57.998Z,19.00
2022-08-03T03:56:58.351Z,19.00
2022-08-03T04:04:18.825Z,19.00
2022-08-03T04:11:31.749Z,19.00
2022-08-03T04:18:35.258Z,19.00
2022-08-03T04:25:40.027Z,19.00
2022-08-03T04:32:45.557Z,18.90
2022-08-03T04:39:49.207Z,19.00
2022-08-03T04:46:52.543Z,19.00
2022-08-03T04:53:53.597Z,19.00
2022-08-03T05:00:53.668Z,19.00
2022-08-03T05:07:54.046Z,19.10
2022-08-03T05:14:55.803Z,19.20
2022-08-03T05:21:56.030Z,19.30
2022-08-03T05:28:56.426Z,19.40
2022-08-03T05:36:03.332Z,19.50
2022-08-03T05:43:04.691Z,19.70
2022-08-03T05:50:05.450Z,19.90
2022-08-03T05:57:05.753Z,20.10
2022-08-03T06:04:06.306Z,20.20
2022-08-03T06:11:07.350Z,20.50
2022-08-03T06:18:07.941Z,20.80
2022-08-03T06:25:12.866Z,21.00
2022-08-03T06:32:14.669Z,21.20
2022-08-03T06:39:15.313Z,21.50
2022-08-03T06:46:16.290Z,21.80
2022-08-03T06:53:19.856Z,22.00
2022-08-03T07:00:22.381Z,22.30
2022-08-03T07:07:22.675Z,22.70
2022-08-03T07:14:23.160Z,23.00
2022-08-03T07:21:24.106Z,23.30
2022-08-03T07:28:24.593Z,23.60
2022-08-03T07:35:26.287Z,23.90
2022-08-03T07:42:30.092Z,24.20
2022-08-03T07:49:30.797Z,24.40
2022-08-03T07:56:31.815Z,24.80
2022-08-03T08:03:41.156Z,25.10
2022-08-03T08:10:56.617Z,25.40
2022-08-03T08:18:01.355Z,25.80
2022-08-03T08:25:02.900Z,26.10
2022-08-03T08:32:03.497Z,26.40
2022-08-03T08:39:04.004Z,26.60
2022-08-03T08:46:08.669Z,26.70
2022-08-03T08:53:17.505Z,26.80
2022-08-03T09:00:20.155Z,27.00
2022-08-03T09:07:21.045Z,27.00
2022-08-03T09:14:34.185Z,27.20
2022-08-03T09:21:40.373Z,27.30
2022-08-03T09:28:58.082Z,27.60
2022-08-03T09:36:01.135Z,27.90
2022-08-03T09:43:01.678Z,28.30
2022-08-03T09:50:08.251Z,28.50
2022-08-03T09:57:19.851Z,28.70
2022-08-03T10:04:21.229Z,28.90
2022-08-03T10:11:35.183Z,29.00
2022-08-03T10:18:41.065Z,29.10
2022-08-03T10:25:43.736Z,29.30
2022-08-03T10:33:01.170Z,29.40
2022-08-03T10:40:03.402Z,29.20
2022-08-03T10:47:04.785Z,29.20
2022-08-03T10:54:05.252Z,29.40
2022-08-03T11:01:10.452Z,29.70
2022-08-03T11:08:50.471Z,29.90
2022-08-03T11:16:01.610Z,30.00
2022-08-03T11:23:03.306Z,30.20
2022-08-03T11:30:22.681Z,30.30
2022-08-03T11:37:33.164Z,30.30
2022-08-03T11:44:40.303Z,30.70
2022-08-03T11:51:40.918Z,30.90
2022-08-03T11:59:10.668Z,31.00
2022-08-03T12:06:11.228Z,31.20
2022-08-03T12:14:10.468Z,31.20
2022-08-03T12:20:35.006Z,31.40
2022-08-03T12:27:36.468Z,31.60
2022-08-03T12:34:49.741Z,31.70
2022-08-03T12:41:54.240Z,31.80
2022-08-03T12:49:02.475Z,32.10
2022-08-03T12:56:06.022Z,32.30
2022-08-03T13:10:33.573Z,32.30
2022-08-03T13:17:34.276Z,32.40
2022-08-03T13:24:34.836Z,32.90
2022-08-03T13:31:35.248Z,33.50
2022-08-03T13:38:35.670Z,33.80
2022-08-03T13:45:36.118Z,34.00
2022-08-03T13:52:36.627Z,34.30
2022-08-03T13:59:37.142Z,34.60
2022-08-03T14:06:38.547Z,34.80
2022-08-03T14:13:46.443Z,34.90
2022-08-03T14:20:53.012Z,35.20
2022-08-03T14:27:55.973Z,35.40
2022-08-03T14:34:56.494Z,35.70
2022-08-03T14:41:56.982Z,35.80
2022-08-03T14:50:27.893Z,35.70
2022-08-03T14:56:18.261Z,36.00
2022-08-03T15:03:25.904Z,36.40
2022-08-03T15:10:30.587Z,36.80
2022-08-03T15:17:59.731Z,37.10
2022-08-03T15:25:02.504Z,37.00
2022-08-03T15:32:07.286Z,36.50
2022-08-03T15:39:09.518Z,36.30
2022-08-03T15:46:28.684Z,36.50
2022-08-03T15:53:30.056Z,36.90
2022-08-03T16:00:33.408Z,36.40
2022-08-03T16:07:58.610Z,35.90
2022-08-03T16:15:05.320Z,35.50
2022-08-03T16:22:05.561Z,35.80
2022-08-03T16:29:08.508Z,35.60
2022-08-03T16:36:22.966Z,35.70
2022-08-03T16:43:24.548Z,35.80
2022-08-03T16:50:24.893Z,35.90
2022-08-03T16:57:56.630Z,35.80
2022-08-03T17:04:46.435Z,35.70
2022-08-03T17:11:49.604Z,35.50
2022-08-03T17:18:56.583Z,35.30
2022-08-03T17:26:02.612Z,35.20
2022-08-03T17:33:05.672Z,35.00
2022-08-03T17:40:21.187Z,34.80
2022-08-03T17:47:23.788Z,34.90
2022-08-03T17:55:50.622Z,34.80
2022-08-03T18:02:30.752Z,34.70
2022-08-03T18:10:03.314Z,34.50
2022-08-03T18:17:01.892Z,34.40
2022-08-03T18:24:03.405Z,34.10
2022-08-03T18:31:06.115Z,33.90
2022-08-03T18:45:57.780Z,33.30
2022-08-03T19:00:17.309Z,32.40
2022-08-03T19:07:28.674Z,32.00
2022-08-03T19:14:43.797Z,31.70
2022-08-03T19:21:45.891Z,31.30
2022-08-03T19:28:53.560Z,31.00
2022-08-03T19:35:57.313Z,30.70
2022-08-03T19:43:03.334Z,30.30
2022-08-03T19:50:14.003Z,29.90
2022-08-03T19:57:22.259Z,29.60
2022-08-03T20:04:22.985Z,29.20
2022-08-03T20:11:28.783Z,29.00
2022-08-03T20:18:29.397Z,28.70
2022-08-03T20:25:39.438Z,28.50
2022-08-03T20:32:49.119Z,28.20
2022-08-03T20:39:49.942Z,28.00
2022-08-03T20:47:00.176Z,27.70
2022-08-03T20:54:03.032Z,27.50
2022-08-03T21:01:05.672Z,27.10
2022-08-03T21:08:07.520Z,26.80
2022-08-03T21:12:58.652Z,33.70
2022-08-03T21:13:00.669Z,32.80
2022-08-03T21:15:09.671Z,26.60
2022-08-03T21:22:33.401Z,26.40
2022-08-03T21:29:53.320Z,26.10
2022-08-03T21:36:54.791Z,26.00
2022-08-03T21:43:55.456Z,25.80
2022-08-03T21:50:56.330Z,25.60
2022-08-03T21:58:00.155Z,25.30
2022-08-03T22:05:05.225Z,25.10
2022-08-03T22:12:07.793Z,25.00
2022-08-03T22:19:08.298Z,24.70
2022-08-03T22:26:32.337Z,24.50
2022-08-03T22:33:37.118Z,24.40
2022-08-03T22:40:38.832Z,24.30
2022-08-03T22:47:40.726Z,24.10
2022-08-03T22:54:41.770Z,23.80
2022-08-03T23:01:44.188Z,23.80
2022-08-03T23:08:47.635Z,23.70
2022-08-03T23:15:55.358Z,23.70
2022-08-03T23:22:57.537Z,23.50
2022-08-03T23:29:59.515Z,23.30
2022-08-03T23:37:05.313Z,23.20
2022-08-03T23:44:07.239Z,23.10
2022-08-03T23:51:13.009Z,23.10
2022-08-03T23:58:38.447Z,23.00
